Main page


Airports :

Dammam, Saudi Arabia

King Fahd International Airport

latitude: 26-28N, longitude: 049-47E, elevation: 22 m

Current weather observation

The report was made 59 minutes ago, at 09:00 UTC
Wind 16 kt from the North/Northwest
Temperature 26°C
Humidity 21%
Pressure 1014 hPa
Visibility: 8000 m
Clear sky

METAR: OEDF 180900Z 33016KT 8000 SKC 26/02 Q1014 NOSIG

Time: 12:59 (09:59 UTC)


The report was made 7 hours and 44 minutes ago, at 02:15 UTC
Forecast valid from 18 at 06 UTC to 19 at 12 UTC
Wind 10 kt from the North/Northwest with gusts up to 20 kt
Visibility: 8000 m
Probability 30% :
from 18 at 06 UTC to 18 at 12 UTC
Visibility: 5000 m
Blowing dust
from 18 at 16 UTC to 18 at 18 UTC
Wind 8 kt from the West/Northwest

TAF: OEDF 180215Z 1806/1912 34010G20KT 8000 NSC PROB30 TEMPO 1806/1812 5000 BLDU BECMG 1816/1818 30008KT

Weather observations and forecasts of more than 4000 airports (METAR and TAF reports).

The available stations are represented by yellow and red dots on the map.

Hover mouse over dot to see the name of the station.

Then click to see weather observations and forecasts.

To change the map : click on the green buttons with a black cross to zoom in, on the green button with a dash to zoom out, or on the green arrows for adjacent maps.